sensor_id;sensor_type;location;lat;lon;timestamp;temperature;humidity
53422;DHT22;39319;52.944;5.928;2023-01-15T00:01:21;9.30;99.00
53422;DHT22;39319;52.944;5.928;2023-01-15T00:03:47;9.50;99.10
53422;DHT22;39319;52.944;5.928;2023-01-15T00:06:15;9.50;99.40
53422;DHT22;39319;52.944;5.928;2023-01-15T00:08:41;9.40;99.30
53422;DHT22;39319;52.944;5.928;2023-01-15T00:11:06;9.30;99.40
53422;DHT22;39319;52.944;5.928;2023-01-15T00:13:32;9.40;99.30
53422;DHT22;39319;52.944;5.928;2023-01-15T00:16:06;9.40;99.40
53422;DHT22;39319;52.944;5.928;2023-01-15T00:18:32;9.40;99.50
53422;DHT22;39319;52.944;5.928;2023-01-15T00:21:02;9.20;99.50
53422;DHT22;39319;52.944;5.928;2023-01-15T00:23:29;9.30;99.40
53422;DHT22;39319;52.944;5.928;2023-01-15T00:26:18;9.20;99.40
53422;DHT22;39319;52.944;5.928;2023-01-15T00:29:10;9.20;99.30
53422;DHT22;39319;52.944;5.928;2023-01-15T00:31:36;9.20;99.10
53422;DHT22;39319;52.944;5.928;2023-01-15T00:34:02;9.40;99.10
53422;DHT22;39319;52.944;5.928;2023-01-15T00:36:28;9.30;98.70
53422;DHT22;39319;52.944;5.928;2023-01-15T00:38:54;9.30;98.70
53422;DHT22;39319;52.944;5.928;2023-01-15T00:41:20;9.20;99.00
53422;DHT22;39319;52.944;5.928;2023-01-15T00:43:48;9.30;98.90
53422;DHT22;39319;52.944;5.928;2023-01-15T00:46:14;9.70;98.80
53422;DHT22;39319;52.944;5.928;2023-01-15T00:48:40;9.30;98.80
53422;DHT22;39319;52.944;5.928;2023-01-15T00:51:06;9.30;98.80
53422;DHT22;39319;52.944;5.928;2023-01-15T00:53:32;9.60;98.80
53422;DHT22;39319;52.944;5.928;2023-01-15T00:55:57;9.40;98.70
53422;DHT22;39319;52.944;5.928;2023-01-15T00:58:23;9.20;98.70
53422;DHT22;39319;52.944;5.928;2023-01-15T01:00:54;9.30;98.90
53422;DHT22;39319;52.944;5.928;2023-01-15T01:03:20;9.30;98.90
53422;DHT22;39319;52.944;5.928;2023-01-15T01:05:46;9.20;98.60
53422;DHT22;39319;52.944;5.928;2023-01-15T01:08:12;9.20;98.80
53422;DHT22;39319;52.944;5.928;2023-01-15T01:10:38;9.30;98.60
53422;DHT22;39319;52.944;5.928;2023-01-15T01:13:06;9.30;98.50
53422;DHT22;39319;52.944;5.928;2023-01-15T01:15:33;9.30;98.30
53422;DHT22;39319;52.944;5.928;2023-01-15T01:17:59;9.20;98.40
53422;DHT22;39319;52.944;5.928;2023-01-15T01:20:26;9.40;98.30
53422;DHT22;39319;52.944;5.928;2023-01-15T01:22:52;9.20;98.30
53422;DHT22;39319;52.944;5.928;2023-01-15T01:25:18;9.30;98.40
53422;DHT22;39319;52.944;5.928;2023-01-15T01:27:44;9.30;98.30
53422;DHT22;39319;52.944;5.928;2023-01-15T01:30:11;9.20;98.30
53422;DHT22;39319;52.944;5.928;2023-01-15T01:32:37;9.10;98.50
53422;DHT22;39319;52.944;5.928;2023-01-15T01:35:03;9.10;98.40
53422;DHT22;39319;52.944;5.928;2023-01-15T01:37:29;9.10;98.40
53422;DHT22;39319;52.944;5.928;2023-01-15T01:39:55;9.30;98.30
53422;DHT22;39319;52.944;5.928;2023-01-15T01:42:21;9.00;98.40
53422;DHT22;39319;52.944;5.928;2023-01-15T01:47:19;9.10;98.30
53422;DHT22;39319;52.944;5.928;2023-01-15T01:49:50;9.10;98.40
53422;DHT22;39319;52.944;5.928;2023-01-15T01:52:24;9.30;98.60
53422;DHT22;39319;52.944;5.928;2023-01-15T01:54:54;9.30;98.40
53422;DHT22;39319;52.944;5.928;2023-01-15T01:57:21;9.10;98.30
53422;DHT22;39319;52.944;5.928;2023-01-15T01:59:48;9.30;97.90
53422;DHT22;39319;52.944;5.928;2023-01-15T02:02:14;9.10;98.00
53422;DHT22;39319;52.944;5.928;2023-01-15T02:04:42;9.10;97.90
53422;DHT22;39319;52.944;5.928;2023-01-15T02:07:08;9.40;97.80
53422;DHT22;39319;52.944;5.928;2023-01-15T02:09:34;9.20;98.00
53422;DHT22;39319;52.944;5.928;2023-01-15T02:12:16;9.20;97.80
53422;DHT22;39319;52.944;5.928;2023-01-15T02:15:11;9.30;98.10
53422;DHT22;39319;52.944;5.928;2023-01-15T02:18:03;9.10;98.00
53422;DHT22;39319;52.944;5.928;2023-01-15T02:20:36;9.10;97.90
53422;DHT22;39319;52.944;5.928;2023-01-15T02:23:22;9.20;98.20
53422;DHT22;39319;52.944;5.928;2023-01-15T02:28:50;9.10;98.10
53422;DHT22;39319;52.944;5.928;2023-01-15T02:31:27;9.20;98.20
53422;DHT22;39319;52.944;5.928;2023-01-15T02:36:31;9.30;97.90
53422;DHT22;39319;52.944;5.928;2023-01-15T02:39:01;9.30;97.90
53422;DHT22;39319;52.944;5.928;2023-01-15T02:41:32;9.20;98.00
53422;DHT22;39319;52.944;5.928;2023-01-15T02:44:00;9.00;98.20
53422;DHT22;39319;52.944;5.928;2023-01-15T02:46:30;9.10;98.10
53422;DHT22;39319;52.944;5.928;2023-01-15T02:48:58;9.20;97.90
53422;DHT22;39319;52.944;5.928;2023-01-15T02:51:27;9.00;97.90
53422;DHT22;39319;52.944;5.928;2023-01-15T02:53:58;9.10;97.90
53422;DHT22;39319;52.944;5.928;2023-01-15T02:56:29;9.10;97.70
53422;DHT22;39319;52.944;5.928;2023-01-15T02:58:58;9.10;97.60
53422;DHT22;39319;52.944;5.928;2023-01-15T03:01:31;9.20;97.50
53422;DHT22;39319;52.944;5.928;2023-01-15T03:06:48;9.10;97.30
53422;DHT22;39319;52.944;5.928;2023-01-15T03:09:17;9.10;97.40
53422;DHT22;39319;52.944;5.928;2023-01-15T03:11:48;9.00;97.60
53422;DHT22;39319;52.944;5.928;2023-01-15T03:16:50;9.00;97.20
53422;DHT22;39319;52.944;5.928;2023-01-15T03:19:30;9.00;97.30
53422;DHT22;39319;52.944;5.928;2023-01-15T03:22:23;9.00;97.50
53422;DHT22;39319;52.944;5.928;2023-01-15T03:25:38;9.10;97.30
53422;DHT22;39319;52.944;5.928;2023-01-15T03:27:37;9.00;97.30
53422;DHT22;39319;52.944;5.928;2023-01-15T03:30:13;9.10;97.40
53422;DHT22;39319;52.944;5.928;2023-01-15T03:32:40;9.00;97.30
53422;DHT22;39319;52.944;5.928;2023-01-15T03:35:36;9.00;97.30
53422;DHT22;39319;52.944;5.928;2023-01-15T03:37:53;9.00;97.50
53422;DHT22;39319;52.944;5.928;2023-01-15T03:40:20;9.00;97.60
53422;DHT22;39319;52.944;5.928;2023-01-15T03:42:53;9.00;97.60
53422;DHT22;39319;52.944;5.928;2023-01-15T03:45:42;8.90;97.60
53422;DHT22;39319;52.944;5.928;2023-01-15T03:48:23;9.10;97.60
53422;DHT22;39319;52.944;5.928;2023-01-15T03:51:07;8.90;97.50
53422;DHT22;39319;52.944;5.928;2023-01-15T03:53:42;9.00;97.80
53422;DHT22;39319;52.944;5.928;2023-01-15T03:59:04;9.00;97.60
53422;DHT22;39319;52.944;5.928;2023-01-15T04:01:37;9.00;97.60
53422;DHT22;39319;52.944;5.928;2023-01-15T04:04:05;8.90;97.40
53422;DHT22;39319;52.944;5.928;2023-01-15T04:06:35;9.10;97.20
53422;DHT22;39319;52.944;5.928;2023-01-15T04:09:04;8.90;97.00
53422;DHT22;39319;52.944;5.928;2023-01-15T04:11:31;9.00;97.20
53422;DHT22;39319;52.944;5.928;2023-01-15T04:13:56;8.90;97.20
53422;DHT22;39319;52.944;5.928;2023-01-15T04:16:28;9.00;96.80
53422;DHT22;39319;52.944;5.928;2023-01-15T04:18:54;8.90;97.00
53422;DHT22;39319;52.944;5.928;2023-01-15T04:21:20;9.00;97.00
53422;DHT22;39319;52.944;5.928;2023-01-15T04:23:46;8.90;97.00
53422;DHT22;39319;52.944;5.928;2023-01-15T04:26:12;8.90;97.10
53422;DHT22;39319;52.944;5.928;2023-01-15T04:28:39;8.80;97.20
53422;DHT22;39319;52.944;5.928;2023-01-15T04:31:05;8.90;97.00
53422;DHT22;39319;52.944;5.928;2023-01-15T04:33:33;8.80;97.10
53422;DHT22;39319;52.944;5.928;2023-01-15T04:36:00;8.90;97.20
53422;DHT22;39319;52.944;5.928;2023-01-15T04:38:26;9.00;97.10
53422;DHT22;39319;52.944;5.928;2023-01-15T04:40:52;8.90;97.20
53422;DHT22;39319;52.944;5.928;2023-01-15T04:43:37;8.90;97.20
53422;DHT22;39319;52.944;5.928;2023-01-15T04:46:23;8.70;97.00
53422;DHT22;39319;52.944;5.928;2023-01-15T04:48:50;8.80;97.00
53422;DHT22;39319;52.944;5.928;2023-01-15T04:51:16;8.90;97.00
53422;DHT22;39319;52.944;5.928;2023-01-15T04:53:42;8.80;96.80
53422;DHT22;39319;52.944;5.928;2023-01-15T04:56:07;8.80;96.80
53422;DHT22;39319;52.944;5.928;2023-01-15T04:58:33;8.80;96.90
53422;DHT22;39319;52.944;5.928;2023-01-15T05:01:00;8.60;97.10
53422;DHT22;39319;52.944;5.928;2023-01-15T05:03:27;8.70;96.90
53422;DHT22;39319;52.944;5.928;2023-01-15T05:05:53;8.70;97.00
53422;DHT22;39319;52.944;5.928;2023-01-15T05:08:19;8.90;97.00
53422;DHT22;39319;52.944;5.928;2023-01-15T05:10:44;8.60;97.00
53422;DHT22;39319;52.944;5.928;2023-01-15T05:13:11;8.60;97.00
53422;DHT22;39319;52.944;5.928;2023-01-15T05:15:37;8.60;97.00
53422;DHT22;39319;52.944;5.928;2023-01-15T05:18:05;8.70;97.00
53422;DHT22;39319;52.944;5.928;2023-01-15T05:20:35;8.60;97.00
53422;DHT22;39319;52.944;5.928;2023-01-15T05:23:01;8.60;97.10
53422;DHT22;39319;52.944;5.928;2023-01-15T05:25:26;8.70;97.00
53422;DHT22;39319;52.944;5.928;2023-01-15T05:27:53;8.70;97.20
53422;DHT22;39319;52.944;5.928;2023-01-15T05:30:18;8.50;97.50
53422;DHT22;39319;52.944;5.928;2023-01-15T05:32:45;8.70;97.00
53422;DHT22;39319;52.944;5.928;2023-01-15T05:35:11;8.70;96.40
53422;DHT22;39319;52.944;5.928;2023-01-15T05:37:37;7.00;95.90
53422;DHT22;39319;52.944;5.928;2023-01-15T05:40:03;8.60;96.00
53422;DHT22;39319;52.944;5.928;2023-01-15T05:42:29;8.60;96.10
53422;DHT22;39319;52.944;5.928;2023-01-15T05:44:57;8.50;96.50
53422;DHT22;39319;52.944;5.928;2023-01-15T05:47:23;8.50;96.00
53422;DHT22;39319;52.944;5.928;2023-01-15T05:49:49;8.50;96.20
53422;DHT22;39319;52.944;5.928;2023-01-15T05:52:15;8.60;96.30
53422;DHT22;39319;52.944;5.928;2023-01-15T05:54:41;8.40;96.40
53422;DHT22;39319;52.944;5.928;2023-01-15T05:57:10;8.50;96.50
53422;DHT22;39319;52.944;5.928;2023-01-15T05:59:37;8.50;96.70
53422;DHT22;39319;52.944;5.928;2023-01-15T06:02:03;8.40;96.50
53422;DHT22;39319;52.944;5.928;2023-01-15T06:04:30;8.50;96.70
53422;DHT22;39319;52.944;5.928;2023-01-15T06:06:56;8.60;96.50
53422;DHT22;39319;52.944;5.928;2023-01-15T06:09:23;8.50;96.50
53422;DHT22;39319;52.944;5.928;2023-01-15T06:11:49;8.50;96.30
53422;DHT22;39319;52.944;5.928;2023-01-15T06:14:15;8.40;95.70
53422;DHT22;39319;52.944;5.928;2023-01-15T06:16:41;8.50;95.50
53422;DHT22;39319;52.944;5.928;2023-01-15T06:19:08;8.60;95.60
53422;DHT22;39319;52.944;5.928;2023-01-15T06:21:37;8.60;95.30
53422;DHT22;39319;52.944;5.928;2023-01-15T06:24:03;8.60;95.50
53422;DHT22;39319;52.944;5.928;2023-01-15T06:26:30;8.50;95.20
53422;DHT22;39319;52.944;5.928;2023-01-15T06:28:58;8.30;95.30
53422;DHT22;39319;52.944;5.928;2023-01-15T06:31:25;8.40;95.50
53422;DHT22;39319;52.944;5.928;2023-01-15T06:33:54;8.30;95.60
53422;DHT22;39319;52.944;5.928;2023-01-15T06:36:22;8.50;95.30
53422;DHT22;39319;52.944;5.928;2023-01-15T06:38:48;8.40;95.30
53422;DHT22;39319;52.944;5.928;2023-01-15T06:41:20;8.50;95.10
53422;DHT22;39319;52.944;5.928;2023-01-15T06:44:05;8.50;95.40
53422;DHT22;39319;52.944;5.928;2023-01-15T06:46:50;8.40;95.20
53422;DHT22;39319;52.944;5.928;2023-01-15T06:49:35;8.30;94.80
53422;DHT22;39319;52.944;5.928;2023-01-15T06:52:02;8.40;94.90
53422;DHT22;39319;52.944;5.928;2023-01-15T06:54:28;8.40;94.60
53422;DHT22;39319;52.944;5.928;2023-01-15T06:56:54;8.50;94.90
53422;DHT22;39319;52.944;5.928;2023-01-15T06:59:21;8.40;94.70
53422;DHT22;39319;52.944;5.928;2023-01-15T07:01:46;8.40;94.90
53422;DHT22;39319;52.944;5.928;2023-01-15T07:04:13;8.30;94.30
53422;DHT22;39319;52.944;5.928;2023-01-15T07:06:42;8.20;94.90
53422;DHT22;39319;52.944;5.928;2023-01-15T07:09:08;8.30;94.40
53422;DHT22;39319;52.944;5.928;2023-01-15T07:11:34;8.30;94.50
53422;DHT22;39319;52.944;5.928;2023-01-15T07:14:00;8.30;94.70
53422;DHT22;39319;52.944;5.928;2023-01-15T07:16:36;8.40;94.90
53422;DHT22;39319;52.944;5.928;2023-01-15T07:19:03;8.50;94.50
53422;DHT22;39319;52.944;5.928;2023-01-15T07:21:29;8.50;94.60
53422;DHT22;39319;52.944;5.928;2023-01-15T07:23:58;8.50;94.20
53422;DHT22;39319;52.944;5.928;2023-01-15T07:26:25;8.40;93.80
53422;DHT22;39319;52.944;5.928;2023-01-15T07:28:50;8.40;94.00
53422;DHT22;39319;52.944;5.928;2023-01-15T07:31:16;8.30;94.40
53422;DHT22;39319;52.944;5.928;2023-01-15T07:33:42;8.50;94.30
53422;DHT22;39319;52.944;5.928;2023-01-15T07:36:08;8.40;94.70
53422;DHT22;39319;52.944;5.928;2023-01-15T07:38:34;8.40;94.20
53422;DHT22;39319;52.944;5.928;2023-01-15T07:41:00;8.40;94.30
53422;DHT22;39319;52.944;5.928;2023-01-15T07:43:44;8.30;94.10
53422;DHT22;39319;52.944;5.928;2023-01-15T07:46:29;8.40;94.30
53422;DHT22;39319;52.944;5.928;2023-01-15T07:49:14;8.40;93.90
53422;DHT22;39319;52.944;5.928;2023-01-15T07:51:58;8.30;94.40
53422;DHT22;39319;52.944;5.928;2023-01-15T07:54:24;8.80;94.80
53422;DHT22;39319;52.944;5.928;2023-01-15T07:56:50;8.30;94.90
53422;DHT22;39319;52.944;5.928;2023-01-15T07:59:17;8.20;95.10
53422;DHT22;39319;52.944;5.928;2023-01-15T08:01:43;8.20;95.10
53422;DHT22;39319;52.944;5.928;2023-01-15T08:04:08;8.20;94.90
53422;DHT22;39319;52.944;5.928;2023-01-15T08:06:35;8.40;94.80
53422;DHT22;39319;52.944;5.928;2023-01-15T08:09:01;8.30;95.50
53422;DHT22;39319;52.944;5.928;2023-01-15T08:11:27;8.20;96.00
53422;DHT22;39319;52.944;5.928;2023-01-15T08:14:11;8.10;95.90
53422;DHT22;39319;52.944;5.928;2023-01-15T08:16:56;8.10;96.00
53422;DHT22;39319;52.944;5.928;2023-01-15T08:19:21;7.80;96.30
53422;DHT22;39319;52.944;5.928;2023-01-15T08:21:50;7.90;96.60
53422;DHT22;39319;52.944;5.928;2023-01-15T08:24:16;7.80;96.80
53422;DHT22;39319;52.944;5.928;2023-01-15T08:26:42;7.90;97.50
53422;DHT22;39319;52.944;5.928;2023-01-15T08:29:07;7.80;97.40
53422;DHT22;39319;52.944;5.928;2023-01-15T08:31:34;7.80;97.50
53422;DHT22;39319;52.944;5.928;2023-01-15T08:34:01;7.80;97.60
53422;DHT22;39319;52.944;5.928;2023-01-15T08:36:27;7.90;97.80
53422;DHT22;39319;52.944;5.928;2023-01-15T08:38:53;7.80;97.90
53422;DHT22;39319;52.944;5.928;2023-01-15T08:41:19;7.80;97.80
53422;DHT22;39319;52.944;5.928;2023-01-15T08:43:45;7.90;97.70
53422;DHT22;39319;52.944;5.928;2023-01-15T08:46:11;7.80;97.70
53422;DHT22;39319;52.944;5.928;2023-01-15T08:48:37;7.80;97.80
53422;DHT22;39319;52.944;5.928;2023-01-15T08:51:07;7.80;97.60
53422;DHT22;39319;52.944;5.928;2023-01-15T08:53:33;7.80;97.60
53422;DHT22;39319;52.944;5.928;2023-01-15T08:55:59;7.90;97.40
53422;DHT22;39319;52.944;5.928;2023-01-15T08:58:30;7.90;97.20
53422;DHT22;39319;52.944;5.928;2023-01-15T09:01:02;8.00;96.90
53422;DHT22;39319;52.944;5.928;2023-01-15T09:03:28;7.80;97.10
53422;DHT22;39319;52.944;5.928;2023-01-15T09:05:57;7.90;97.30
53422;DHT22;39319;52.944;5.928;2023-01-15T09:08:24;7.90;97.10
53422;DHT22;39319;52.944;5.928;2023-01-15T09:10:49;7.90;97.10
53422;DHT22;39319;52.944;5.928;2023-01-15T09:13:16;8.00;96.70
53422;DHT22;39319;52.944;5.928;2023-01-15T09:15:42;8.30;96.50
53422;DHT22;39319;52.944;5.928;2023-01-15T09:18:07;8.30;96.60
53422;DHT22;39319;52.944;5.928;2023-01-15T09:20:37;8.20;96.70
53422;DHT22;39319;52.944;5.928;2023-01-15T09:23:02;8.20;96.80
53422;DHT22;39319;52.944;5.928;2023-01-15T09:25:29;8.30;96.80
53422;DHT22;39319;52.944;5.928;2023-01-15T09:27:55;8.40;96.70
53422;DHT22;39319;52.944;5.928;2023-01-15T09:30:22;8.40;96.40
53422;DHT22;39319;52.944;5.928;2023-01-15T09:32:50;8.60;96.20
53422;DHT22;39319;52.944;5.928;2023-01-15T09:35:16;8.50;96.00
53422;DHT22;39319;52.944;5.928;2023-01-15T09:37:42;8.50;95.90
53422;DHT22;39319;52.944;5.928;2023-01-15T09:40:36;8.50;95.70
53422;DHT22;39319;52.944;5.928;2023-01-15T09:43:09;8.50;96.20
53422;DHT22;39319;52.944;5.928;2023-01-15T09:45:46;8.60;95.80
53422;DHT22;39319;52.944;5.928;2023-01-15T09:50:49;8.50;95.80
53422;DHT22;39319;52.944;5.928;2023-01-15T09:56:18;8.50;96.30
53422;DHT22;39319;52.944;5.928;2023-01-15T09:58:44;8.40;96.40
53422;DHT22;39319;52.944;5.928;2023-01-15T10:01:19;8.70;96.20
53422;DHT22;39319;52.944;5.928;2023-01-15T10:07:02;8.70;95.90
53422;DHT22;39319;52.944;5.928;2023-01-15T10:09:34;8.80;96.10
53422;DHT22;39319;52.944;5.928;2023-01-15T10:12:29;8.80;95.90
53422;DHT22;39319;52.944;5.928;2023-01-15T10:15:34;8.80;95.90
53422;DHT22;39319;52.944;5.928;2023-01-15T10:18:01;9.10;95.90
53422;DHT22;39319;52.944;5.928;2023-01-15T10:23:58;8.90;96.00
53422;DHT22;39319;52.944;5.928;2023-01-15T10:26:53;8.90;95.80
53422;DHT22;39319;52.944;5.928;2023-01-15T10:29:35;8.90;95.70
53422;DHT22;39319;52.944;5.928;2023-01-15T10:37:41;9.10;96.40
53422;DHT22;39319;52.944;5.928;2023-01-15T10:40:27;9.20;96.40
53422;DHT22;39319;52.944;5.928;2023-01-15T10:43:17;9.00;96.40
53422;DHT22;39319;52.944;5.928;2023-01-15T10:46:15;9.20;96.00
53422;DHT22;39319;52.944;5.928;2023-01-15T10:48:45;9.20;95.60
53422;DHT22;39319;52.944;5.928;2023-01-15T10:51:16;9.20;95.80
53422;DHT22;39319;52.944;5.928;2023-01-15T10:53:57;9.10;95.90
53422;DHT22;39319;52.944;5.928;2023-01-15T10:56:31;9.30;95.70
53422;DHT22;39319;52.944;5.928;2023-01-15T10:59:03;9.40;95.90
53422;DHT22;39319;52.944;5.928;2023-01-15T11:01:33;9.40;95.70
53422;DHT22;39319;52.944;5.928;2023-01-15T11:03:59;9.30;95.50
53422;DHT22;39319;52.944;5.928;2023-01-15T11:06:29;9.40;95.40
53422;DHT22;39319;52.944;5.928;2023-01-15T11:08:56;9.40;95.50
53422;DHT22;39319;52.944;5.928;2023-01-15T11:11:31;9.30;95.50
53422;DHT22;39319;52.944;5.928;2023-01-15T11:14:17;9.30;95.50
53422;DHT22;39319;52.944;5.928;2023-01-15T11:17:01;9.40;95.50
53422;DHT22;39319;52.944;5.928;2023-01-15T11:19:36;9.30;95.40
53422;DHT22;39319;52.944;5.928;2023-01-15T11:22:16;9.30;95.60
53422;DHT22;39319;52.944;5.928;2023-01-15T11:24:49;9.20;95.90
53422;DHT22;39319;52.944;5.928;2023-01-15T11:27:19;9.40;96.40
53422;DHT22;39319;52.944;5.928;2023-01-15T11:29:51;9.40;96.20
53422;DHT22;39319;52.944;5.928;2023-01-15T11:32:37;9.50;96.00
53422;DHT22;39319;52.944;5.928;2023-01-15T11:35:16;9.50;96.10
53422;DHT22;39319;52.944;5.928;2023-01-15T11:37:42;9.50;96.20
53422;DHT22;39319;52.944;5.928;2023-01-15T11:40:20;9.50;95.60
53422;DHT22;39319;52.944;5.928;2023-01-15T11:42:49;9.50;95.50
53422;DHT22;39319;52.944;5.928;2023-01-15T11:45:34;9.50;95.60
53422;DHT22;39319;52.944;5.928;2023-01-15T11:48:28;9.40;95.90
53422;DHT22;39319;52.944;5.928;2023-01-15T11:51:15;9.50;96.10
53422;DHT22;39319;52.944;5.928;2023-01-15T11:53:43;9.50;96.00
53422;DHT22;39319;52.944;5.928;2023-01-15T11:56:23;9.50;95.80
53422;DHT22;39319;52.944;5.928;2023-01-15T11:58:55;9.40;95.70
53422;DHT22;39319;52.944;5.928;2023-01-15T12:01:25;9.60;95.90
53422;DHT22;39319;52.944;5.928;2023-01-15T12:03:54;9.60;95.90
53422;DHT22;39319;52.944;5.928;2023-01-15T12:06:21;9.50;96.00
53422;DHT22;39319;52.944;5.928;2023-01-15T12:17:03;9.50;96.00
53422;DHT22;39319;52.944;5.928;2023-01-15T12:28:22;9.80;95.70
53422;DHT22;39319;52.944;5.928;2023-01-15T12:31:10;9.70;95.70
53422;DHT22;39319;52.944;5.928;2023-01-15T12:33:47;9.70;95.80
53422;DHT22;39319;52.944;5.928;2023-01-15T12:36:25;9.80;95.60
53422;DHT22;39319;52.944;5.928;2023-01-15T12:38:59;9.80;95.70
53422;DHT22;39319;52.944;5.928;2023-01-15T12:41:29;9.70;95.90
53422;DHT22;39319;52.944;5.928;2023-01-15T12:44:37;9.70;95.90
53422;DHT22;39319;52.944;5.928;2023-01-15T12:51:14;9.70;95.70
53422;DHT22;39319;52.944;5.928;2023-01-15T12:53:50;9.50;96.40
53422;DHT22;39319;52.944;5.928;2023-01-15T12:56:21;9.50;96.60
53422;DHT22;39319;52.944;5.928;2023-01-15T12:59:10;9.20;98.00
53422;DHT22;39319;52.944;5.928;2023-01-15T13:04:47;9.10;98.30
53422;DHT22;39319;52.944;5.928;2023-01-15T13:07:35;8.90;99.00
53422;DHT22;39319;52.944;5.928;2023-01-15T13:12:32;8.60;99.60
53422;DHT22;39319;52.944;5.928;2023-01-15T13:15:00;8.80;99.90
53422;DHT22;39319;52.944;5.928;2023-01-15T13:23:08;8.30;99.90
53422;DHT22;39319;52.944;5.928;2023-01-15T13:37:06;8.10;99.90
53422;DHT22;39319;52.944;5.928;2023-01-15T13:39:40;8.00;99.90
53422;DHT22;39319;52.944;5.928;2023-01-15T13:42:19;8.00;99.90
53422;DHT22;39319;52.944;5.928;2023-01-15T13:45:19;7.90;99.90
53422;DHT22;39319;52.944;5.928;2023-01-15T13:47:51;8.00;99.90
53422;DHT22;39319;52.944;5.928;2023-01-15T13:50:29;8.00;99.90
53422;DHT22;39319;52.944;5.928;2023-01-15T13:56:01;8.20;99.90
53422;DHT22;39319;52.944;5.928;2023-01-15T13:58:32;8.20;99.90
53422;DHT22;39319;52.944;5.928;2023-01-15T14:04:13;8.10;99.90
53422;DHT22;39319;52.944;5.928;2023-01-15T14:06:48;8.10;99.90
53422;DHT22;39319;52.944;5.928;2023-01-15T14:09:34;8.10;99.90
53422;DHT22;39319;52.944;5.928;2023-01-15T14:17:26;8.20;99.90
53422;DHT22;39319;52.944;5.928;2023-01-15T14:30:35;8.30;99.90
53422;DHT22;39319;52.944;5.928;2023-01-15T14:35:48;8.30;99.90
53422;DHT22;39319;52.944;5.928;2023-01-15T14:38:16;8.30;99.90
53422;DHT22;39319;52.944;5.928;2023-01-15T14:40:56;8.20;99.90
53422;DHT22;39319;52.944;5.928;2023-01-15T14:43:27;8.30;99.90
53422;DHT22;39319;52.944;5.928;2023-01-15T14:45:54;8.50;99.90
53422;DHT22;39319;52.944;5.928;2023-01-15T14:51:23;8.40;99.90
53422;DHT22;39319;52.944;5.928;2023-01-15T14:54:05;8.40;99.90
53422;DHT22;39319;52.944;5.928;2023-01-15T14:56:48;8.50;99.90
53422;DHT22;39319;52.944;5.928;2023-01-15T14:59:27;8.50;99.90
53422;DHT22;39319;52.944;5.928;2023-01-15T15:02:00;8.40;99.90
53422;DHT22;39319;52.944;5.928;2023-01-15T15:04:39;8.40;99.90
53422;DHT22;39319;52.944;5.928;2023-01-15T15:07:16;8.50;99.90
53422;DHT22;39319;52.944;5.928;2023-01-15T15:09:57;8.40;99.90
53422;DHT22;39319;52.944;5.928;2023-01-15T15:15:32;8.40;99.90
53422;DHT22;39319;52.944;5.928;2023-01-15T15:20:50;8.50;99.90
53422;DHT22;39319;52.944;5.928;2023-01-15T15:23:27;8.50;99.90
53422;DHT22;39319;52.944;5.928;2023-01-15T15:26:02;8.40;99.90
53422;DHT22;39319;52.944;5.928;2023-01-15T15:28:28;8.50;99.90
53422;DHT22;39319;52.944;5.928;2023-01-15T15:30:57;8.50;99.90
53422;DHT22;39319;52.944;5.928;2023-01-15T15:33:33;8.60;99.90
53422;DHT22;39319;52.944;5.928;2023-01-15T15:36:01;8.40;99.90
53422;DHT22;39319;52.944;5.928;2023-01-15T15:38:27;8.60;99.90
53422;DHT22;39319;52.944;5.928;2023-01-15T15:41:01;8.50;99.90
53422;DHT22;39319;52.944;5.928;2023-01-15T15:43:48;8.60;99.90
53422;DHT22;39319;52.944;5.928;2023-01-15T15:46:35;8.50;99.90
53422;DHT22;39319;52.944;5.928;2023-01-15T15:49:20;8.50;99.90
53422;DHT22;39319;52.944;5.928;2023-01-15T15:51:53;8.60;99.90
53422;DHT22;39319;52.944;5.928;2023-01-15T15:54:26;8.60;99.90
53422;DHT22;39319;52.944;5.928;2023-01-15T15:57:28;8.60;99.90
53422;DHT22;39319;52.944;5.928;2023-01-15T15:59:56;8.90;99.90
53422;DHT22;39319;52.944;5.928;2023-01-15T16:04:54;8.60;99.90
53422;DHT22;39319;52.944;5.928;2023-01-15T16:07:26;8.60;99.90
53422;DHT22;39319;52.944;5.928;2023-01-15T16:09:56;8.40;99.90
53422;DHT22;39319;52.944;5.928;2023-01-15T16:12:24;8.50;99.90
53422;DHT22;39319;52.944;5.928;2023-01-15T16:14:51;8.60;99.90
53422;DHT22;39319;52.944;5.928;2023-01-15T16:17:17;8.40;99.90
53422;DHT22;39319;52.944;5.928;2023-01-15T16:19:43;8.50;99.90
53422;DHT22;39319;52.944;5.928;2023-01-15T16:22:14;8.40;99.90
53422;DHT22;39319;52.944;5.928;2023-01-15T16:24:40;8.40;99.90
53422;DHT22;39319;52.944;5.928;2023-01-15T16:27:17;8.40;99.90
53422;DHT22;39319;52.944;5.928;2023-01-15T16:29:51;8.40;99.90
53422;DHT22;39319;52.944;5.928;2023-01-15T16:32:29;8.40;99.90
53422;DHT22;39319;52.944;5.928;2023-01-15T16:35:17;8.40;99.90
53422;DHT22;39319;52.944;5.928;2023-01-15T16:37:46;8.50;99.90
53422;DHT22;39319;52.944;5.928;2023-01-15T16:40:22;8.30;99.90
53422;DHT22;39319;52.944;5.928;2023-01-15T16:43:06;8.40;99.90
53422;DHT22;39319;52.944;5.928;2023-01-15T16:45:33;8.50;99.90
53422;DHT22;39319;52.944;5.928;2023-01-15T16:50:33;8.40;99.90
53422;DHT22;39319;52.944;5.928;2023-01-15T16:53:01;8.30;99.90
53422;DHT22;39319;52.944;5.928;2023-01-15T16:58:15;8.40;99.90
53422;DHT22;39319;52.944;5.928;2023-01-15T17:00:52;8.30;99.90
53422;DHT22;39319;52.944;5.928;2023-01-15T17:03:21;8.30;99.90
53422;DHT22;39319;52.944;5.928;2023-01-15T17:05:52;8.40;99.90
53422;DHT22;39319;52.944;5.928;2023-01-15T17:08:26;8.30;99.90
53422;DHT22;39319;52.944;5.928;2023-01-15T17:10:59;8.30;99.90
53422;DHT22;39319;52.944;5.928;2023-01-15T17:16:02;8.00;99.90
53422;DHT22;39319;52.944;5.928;2023-01-15T17:18:29;8.30;99.90
53422;DHT22;39319;52.944;5.928;2023-01-15T17:20:56;8.20;99.90
53422;DHT22;39319;52.944;5.928;2023-01-15T17:23:27;8.30;99.90
53422;DHT22;39319;52.944;5.928;2023-01-15T17:25:54;8.30;99.90
53422;DHT22;39319;52.944;5.928;2023-01-15T17:28:20;8.30;99.90
53422;DHT22;39319;52.944;5.928;2023-01-15T17:30:50;8.40;99.90
53422;DHT22;39319;52.944;5.928;2023-01-15T17:33:18;8.20;99.90
53422;DHT22;39319;52.944;5.928;2023-01-15T17:35:44;8.20;99.90
53422;DHT22;39319;52.944;5.928;2023-01-15T17:38:14;8.20;99.90
53422;DHT22;39319;52.944;5.928;2023-01-15T17:40:41;8.30;99.90
53422;DHT22;39319;52.944;5.928;2023-01-15T17:43:12;8.30;99.90
53422;DHT22;39319;52.944;5.928;2023-01-15T17:45:39;9.00;99.90
53422;DHT22;39319;52.944;5.928;2023-01-15T17:48:06;8.40;99.90
53422;DHT22;39319;52.944;5.928;2023-01-15T17:50:37;8.30;99.90
53422;DHT22;39319;52.944;5.928;2023-01-15T17:53:04;8.40;99.90
53422;DHT22;39319;52.944;5.928;2023-01-15T17:55:30;8.30;99.90
53422;DHT22;39319;52.944;5.928;2023-01-15T17:58:16;8.30;99.90
53422;DHT22;39319;52.944;5.928;2023-01-15T18:01:04;8.30;99.90
53422;DHT22;39319;52.944;5.928;2023-01-15T18:03:53;8.30;99.90
53422;DHT22;39319;52.944;5.928;2023-01-15T18:06:47;8.40;99.90
53422;DHT22;39319;52.944;5.928;2023-01-15T18:09:15;8.50;99.90
53422;DHT22;39319;52.944;5.928;2023-01-15T18:11:41;8.40;99.90
53422;DHT22;39319;52.944;5.928;2023-01-15T18:14:07;8.40;99.90